createdAt,value
2023-03-30T00:01:18.888Z,11.82
2023-03-30T00:03:50.059Z,11.63
2023-03-30T00:06:23.455Z,11.92
2023-03-30T00:09:00.647Z,11.93
2023-03-30T00:11:34.112Z,11.91
2023-03-30T00:14:02.344Z,12.04
2023-03-30T00:16:31.765Z,11.95
2023-03-30T00:18:58.901Z,12.16
2023-03-30T00:21:28.287Z,12.24
2023-03-30T00:23:57.378Z,12.17
2023-03-30T00:26:24.666Z,12.21
2023-03-30T00:28:52.492Z,12.31
2023-03-30T00:31:20.512Z,12.30
2023-03-30T00:33:47.986Z,12.28
2023-03-30T00:36:16.578Z,12.39
2023-03-30T00:38:48.434Z,12.20
2023-03-30T00:41:18.338Z,12.28
2023-03-30T00:44:51.917Z,12.26
2023-03-30T00:47:19.819Z,12.04
2023-03-30T00:49:47.488Z,12.25
2023-03-30T00:52:19.321Z,12.15
2023-03-30T00:54:47.605Z,12.16
2023-03-30T00:57:17.670Z,12.03
2023-03-30T00:59:45.289Z,12.08
2023-03-30T01:02:15.462Z,11.79
2023-03-30T01:04:45.835Z,11.67
2023-03-30T01:07:13.645Z,11.79
2023-03-30T01:09:42.961Z,11.69
2023-03-30T01:12:11.228Z,11.85
2023-03-30T01:14:42.299Z,12.00
2023-03-30T01:17:33.098Z,12.08
2023-03-30T01:20:20.896Z,12.10
2023-03-30T01:23:13.580Z,11.87
2023-03-30T01:26:11.561Z,11.98
2023-03-30T01:29:00.539Z,12.00
2023-03-30T01:32:03.240Z,12.16
2023-03-30T01:34:48.250Z,12.23
2023-03-30T01:37:37.374Z,12.26
2023-03-30T01:40:13.201Z,12.12
2023-03-30T01:42:57.974Z,11.93
2023-03-30T01:45:45.700Z,12.23
2023-03-30T01:48:39.444Z,12.06
2023-03-30T01:51:13.140Z,11.96
2023-03-30T01:54:08.410Z,11.90
2023-03-30T01:56:57.127Z,12.08
2023-03-30T01:59:37.551Z,11.76
2023-03-30T02:02:07.247Z,11.70
2023-03-30T02:04:42.132Z,11.77
2023-03-30T02:07:24.192Z,11.45
2023-03-30T02:09:55.045Z,11.54
2023-03-30T02:12:23.844Z,11.52
2023-03-30T02:14:52.913Z,11.65
2023-03-30T02:17:27.236Z,11.57
2023-03-30T02:20:00.425Z,11.58
2023-03-30T02:22:30.630Z,11.70
2023-03-30T02:24:58.574Z,11.66
2023-03-30T02:27:27.748Z,11.38
2023-03-30T02:29:57.029Z,11.29
2023-03-30T02:32:37.148Z,11.41
2023-03-30T02:35:26.770Z,11.50
2023-03-30T02:38:35.561Z,11.37
2023-03-30T02:41:31.232Z,11.48
2023-03-30T02:44:22.458Z,11.51
2023-03-30T02:47:00.450Z,11.39
2023-03-30T02:49:43.581Z,11.49
2023-03-30T02:52:57.526Z,11.66
2023-03-30T02:55:51.388Z,11.38
2023-03-30T02:58:47.570Z,11.49
2023-03-30T03:01:47.899Z,11.71
2023-03-30T03:04:15.689Z,11.54
2023-03-30T03:06:43.294Z,11.66
2023-03-30T03:09:10.262Z,11.75
2023-03-30T03:11:37.229Z,11.72
2023-03-30T03:14:04.382Z,11.62
2023-03-30T03:16:34.675Z,11.51
2023-03-30T03:19:04.512Z,11.73
2023-03-30T03:21:31.359Z,11.93
2023-03-30T03:23:58.540Z,12.03
2023-03-30T03:26:27.071Z,11.89
2023-03-30T03:28:54.197Z,11.98
2023-03-30T03:31:22.156Z,11.86
2023-03-30T03:33:50.616Z,11.77
2023-03-30T03:36:25.135Z,11.83
2023-03-30T03:38:52.461Z,11.70
2023-03-30T03:41:22.046Z,11.67
2023-03-30T03:43:53.702Z,11.50
2023-03-30T03:46:21.128Z,11.62
2023-03-30T03:48:50.260Z,11.68
2023-03-30T03:51:17.368Z,11.55
2023-03-30T03:53:44.312Z,11.45
2023-03-30T03:56:14.906Z,11.40
2023-03-30T03:58:46.604Z,11.35
2023-03-30T04:01:14.611Z,11.44
2023-03-30T04:03:44.293Z,11.37
2023-03-30T04:06:14.117Z,11.39
2023-03-30T04:08:46.204Z,11.38
2023-03-30T04:11:17.717Z,11.22
2023-03-30T04:13:48.197Z,11.18
2023-03-30T04:16:15.570Z,11.16
2023-03-30T04:18:43.842Z,11.17
2023-03-30T04:21:13.244Z,11.22
2023-03-30T04:23:45.602Z,11.11
2023-03-30T04:26:15.881Z,11.11
2023-03-30T04:28:43.109Z,11.20
2023-03-30T04:31:11.003Z,11.00
2023-03-30T04:33:52.080Z,10.90
2023-03-30T04:36:20.774Z,10.85
2023-03-30T04:39:00.557Z,10.90
2023-03-30T04:41:33.250Z,10.75
2023-03-30T04:44:07.373Z,10.92
2023-03-30T04:46:34.389Z,10.75
2023-03-30T04:49:01.833Z,10.93
2023-03-30T04:51:31.833Z,11.03
2023-03-30T04:53:58.809Z,11.19
2023-03-30T04:56:28.167Z,11.15
2023-03-30T04:58:56.103Z,11.16
2023-03-30T05:01:23.175Z,11.16
2023-03-30T05:03:50.297Z,11.25
2023-03-30T05:06:19.692Z,11.24
2023-03-30T05:08:48.940Z,11.24
2023-03-30T05:11:16.069Z,11.20
2023-03-30T05:13:43.128Z,11.14
2023-03-30T05:16:10.495Z,11.02
2023-03-30T05:18:39.701Z,11.13
2023-03-30T05:21:07.138Z,11.18
2023-03-30T05:23:34.093Z,11.07
2023-03-30T05:26:04.714Z,11.30
2023-03-30T05:28:32.591Z,11.28
2023-03-30T05:31:00.226Z,11.26
2023-03-30T05:33:30.220Z,11.31
2023-03-30T05:35:57.328Z,11.42
2023-03-30T05:38:24.356Z,11.48
2023-03-30T05:40:55.014Z,11.50
2023-03-30T05:43:22.282Z,11.47
2023-03-30T05:45:49.196Z,11.52
2023-03-30T05:48:18.820Z,11.73
2023-03-30T05:50:48.643Z,11.76
2023-03-30T05:53:16.243Z,11.65
2023-03-30T05:55:48.548Z,11.63
2023-03-30T05:58:16.956Z,11.72
2023-03-30T06:00:45.188Z,12.08
2023-03-30T06:03:12.752Z,12.22
2023-03-30T06:05:43.863Z,12.53
2023-03-30T06:08:12.063Z,12.46
2023-03-30T06:10:39.378Z,12.41
2023-03-30T06:13:09.206Z,12.72
2023-03-30T06:15:38.330Z,12.86
2023-03-30T06:18:09.956Z,12.96
2023-03-30T06:20:39.229Z,13.11
2023-03-30T06:23:06.298Z,13.15
2023-03-30T06:25:33.859Z,12.99
2023-03-30T06:28:03.371Z,13.14
2023-03-30T06:30:30.490Z,13.21
2023-03-30T06:32:57.496Z,13.05
2023-03-30T06:35:27.328Z,13.08
2023-03-30T06:37:54.293Z,13.16
2023-03-30T06:40:23.910Z,13.20
2023-03-30T06:42:53.230Z,13.21
2023-03-30T06:45:23.450Z,13.30
2023-03-30T06:47:50.441Z,13.31
2023-03-30T06:50:17.613Z,13.43
2023-03-30T06:52:44.593Z,13.54
2023-03-30T06:55:17.155Z,13.63
2023-03-30T06:57:44.121Z,13.80
2023-03-30T07:00:15.319Z,14.08
2023-03-30T07:02:43.385Z,14.22
2023-03-30T07:05:11.877Z,14.35
2023-03-30T07:07:41.382Z,14.42
2023-03-30T07:10:12.022Z,14.52
2023-03-30T07:12:40.932Z,14.56
2023-03-30T07:15:09.142Z,14.69
2023-03-30T07:17:37.191Z,14.82
2023-03-30T07:20:06.121Z,15.63
2023-03-30T07:22:33.237Z,15.79
2023-03-30T07:25:00.203Z,17.33
2023-03-30T07:27:27.470Z,17.88
2023-03-30T07:29:55.086Z,17.36
2023-03-30T07:32:22.782Z,16.89
2023-03-30T07:34:49.913Z,15.78
2023-03-30T07:37:20.629Z,15.71
2023-03-30T07:39:48.821Z,15.25
2023-03-30T07:42:16.043Z,15.13
2023-03-30T07:44:45.825Z,15.26
2023-03-30T07:47:12.892Z,15.31
2023-03-30T07:49:44.730Z,15.18
2023-03-30T07:52:12.016Z,15.11
2023-03-30T07:54:39.389Z,14.86
2023-03-30T07:57:06.397Z,14.97
2023-03-30T07:59:36.065Z,14.95
2023-03-30T08:02:04.627Z,15.15
2023-03-30T08:04:31.925Z,15.16
2023-03-30T08:07:01.601Z,15.13
2023-03-30T08:09:28.609Z,15.25
2023-03-30T08:11:58.274Z,15.57
2023-03-30T08:14:27.408Z,15.64
2023-03-30T08:16:55.289Z,15.30
2023-03-30T08:19:27.125Z,15.78
2023-03-30T08:21:57.050Z,15.77
2023-03-30T08:24:24.447Z,15.75
2023-03-30T08:26:53.540Z,15.31
2023-03-30T08:29:21.185Z,15.52
2023-03-30T08:31:48.316Z,15.53
2023-03-30T08:34:15.364Z,16.34
2023-03-30T08:36:42.813Z,16.90
2023-03-30T08:39:10.936Z,17.18
2023-03-30T08:42:08.378Z,17.22
2023-03-30T08:44:43.541Z,17.40
2023-03-30T08:47:18.198Z,17.19
2023-03-30T08:49:58.858Z,17.41
2023-03-30T08:52:30.931Z,18.26
2023-03-30T08:55:01.493Z,18.95
2023-03-30T08:57:51.301Z,18.04
2023-03-30T09:00:30.912Z,17.91
2023-03-30T09:03:46.251Z,17.90
2023-03-30T09:06:40.615Z,18.37
2023-03-30T09:09:15.251Z,19.32
2023-03-30T09:11:43.094Z,19.74
2023-03-30T09:14:42.550Z,19.79
2023-03-30T09:17:18.279Z,21.07
2023-03-30T09:19:51.684Z,21.45
2023-03-30T09:22:20.365Z,21.66
2023-03-30T09:24:52.724Z,21.25
2023-03-30T09:27:45.753Z,20.49
2023-03-30T09:30:34.941Z,19.74
2023-03-30T09:33:28.197Z,18.98
2023-03-30T09:36:19.322Z,19.54
2023-03-30T09:38:50.395Z,19.86
2023-03-30T09:41:46.071Z,20.20
2023-03-30T09:44:38.455Z,21.30
2023-03-30T09:47:39.024Z,21.89
2023-03-30T09:50:26.761Z,22.19
2023-03-30T09:53:02.135Z,20.91
2023-03-30T09:55:32.885Z,19.93
2023-03-30T09:58:15.523Z,20.13
2023-03-30T10:00:42.462Z,19.50
2023-03-30T10:03:21.882Z,20.29
2023-03-30T10:06:13.407Z,19.62
2023-03-30T10:08:58.754Z,19.60
2023-03-30T10:11:31.770Z,19.62
2023-03-30T10:13:59.644Z,19.13
2023-03-30T10:16:34.358Z,19.34
2023-03-30T10:19:18.987Z,19.33
2023-03-30T10:21:46.974Z,19.04
2023-03-30T10:24:32.166Z,19.53
2023-03-30T10:27:13.710Z,20.12
2023-03-30T10:29:46.900Z,20.66
2023-03-30T10:32:31.768Z,19.96
2023-03-30T10:35:02.147Z,19.47
2023-03-30T10:37:44.964Z,20.66
2023-03-30T10:40:21.054Z,20.11
2023-03-30T10:42:55.636Z,20.56
2023-03-30T10:45:33.297Z,21.29
2023-03-30T10:48:34.301Z,19.96
2023-03-30T10:52:21.752Z,19.25
2023-03-30T10:55:17.043Z,18.67
2023-03-30T10:57:54.578Z,18.46
2023-03-30T11:00:28.863Z,19.63
2023-03-30T11:03:44.820Z,20.27
2023-03-30T11:06:26.423Z,19.66
2023-03-30T11:08:57.855Z,19.47
2023-03-30T11:11:40.649Z,19.21
2023-03-30T11:15:02.202Z,20.53
2023-03-30T11:17:29.948Z,23.68
2023-03-30T11:20:06.011Z,24.54
2023-03-30T11:22:47.591Z,25.25
2023-03-30T11:25:59.200Z,27.81
2023-03-30T11:28:54.729Z,28.66
2023-03-30T11:31:47.505Z,28.64
2023-03-30T11:34:49.601Z,27.17
2023-03-30T11:37:32.232Z,27.51
2023-03-30T11:40:28.580Z,28.63
2023-03-30T11:42:58.500Z,24.92
2023-03-30T11:45:37.837Z,24.73
2023-03-30T11:48:33.837Z,26.30
2023-03-30T11:51:04.010Z,27.22
2023-03-30T11:53:56.651Z,25.73
2023-03-30T11:56:53.166Z,27.03
2023-03-30T12:00:03.736Z,29.53
2023-03-30T12:03:02.124Z,30.54
2023-03-30T12:05:43.295Z,33.24
2023-03-30T12:08:25.516Z,33.57
2023-03-30T12:11:04.223Z,31.94
2023-03-30T12:13:44.502Z,32.03
2023-03-30T12:16:37.987Z,31.46
2023-03-30T12:19:22.397Z,31.60
2023-03-30T12:22:01.466Z,29.01
2023-03-30T12:24:46.528Z,28.28
2023-03-30T12:27:13.700Z,25.94
2023-03-30T12:30:02.619Z,23.99
2023-03-30T12:32:31.678Z,21.79
2023-03-30T12:34:58.905Z,19.03
2023-03-30T12:37:37.701Z,18.08
2023-03-30T12:40:22.100Z,17.14
2023-03-30T12:43:19.457Z,16.91
2023-03-30T12:46:42.858Z,16.69
2023-03-30T12:49:28.198Z,16.81
2023-03-30T12:52:13.750Z,17.02
2023-03-30T12:54:50.285Z,18.11
2023-03-30T12:57:54.075Z,19.33
2023-03-30T13:01:09.656Z,18.83
2023-03-30T13:03:59.003Z,21.11
2023-03-30T13:07:18.140Z,22.13
2023-03-30T13:09:56.218Z,23.06
2023-03-30T13:12:40.323Z,25.05
2023-03-30T13:15:16.235Z,25.85
2023-03-30T13:18:32.087Z,23.65
2023-03-30T13:21:19.260Z,21.64
2023-03-30T13:24:02.281Z,20.58
2023-03-30T13:26:43.482Z,20.36
2023-03-30T13:29:18.765Z,19.70
2023-03-30T13:32:20.126Z,19.85
2023-03-30T13:35:27.950Z,21.42
2023-03-30T13:38:44.195Z,25.26
2023-03-30T13:41:26.408Z,25.23
2023-03-30T13:44:41.338Z,24.45
2023-03-30T13:47:29.778Z,23.72
2023-03-30T13:50:11.873Z,22.94
2023-03-30T13:52:47.397Z,22.00
2023-03-30T13:55:39.993Z,21.16
2023-03-30T13:58:22.274Z,20.84
2023-03-30T14:01:03.082Z,20.21
2023-03-30T14:03:41.679Z,20.24
2023-03-30T14:06:17.643Z,20.30
2023-03-30T14:08:48.452Z,20.01
2023-03-30T14:11:24.404Z,20.26
2023-03-30T14:13:53.862Z,20.51
2023-03-30T14:16:27.920Z,20.52
2023-03-30T14:19:33.730Z,20.09
2023-03-30T14:22:14.109Z,19.91
2023-03-30T14:25:04.846Z,19.70
2023-03-30T14:27:41.298Z,20.65
2023-03-30T14:30:31.763Z,22.65
2023-03-30T14:33:11.741Z,24.07
2023-03-30T14:35:43.898Z,24.62
2023-03-30T14:38:26.721Z,24.39
2023-03-30T14:40:55.294Z,24.68
2023-03-30T14:43:30.868Z,25.91
2023-03-30T14:46:06.143Z,26.21
2023-03-30T14:48:42.231Z,26.20
2023-03-30T14:51:28.853Z,25.38
2023-03-30T14:53:58.714Z,24.98
2023-03-30T14:56:28.074Z,25.37
2023-03-30T14:58:58.740Z,24.99
2023-03-30T15:01:34.994Z,23.42
2023-03-30T15:04:15.836Z,21.97
2023-03-30T15:06:46.050Z,21.74
2023-03-30T15:09:23.158Z,21.37
2023-03-30T15:12:02.316Z,21.66
2023-03-30T15:14:38.353Z,21.24
2023-03-30T15:17:22.804Z,21.58
2023-03-30T15:19:54.161Z,22.23
2023-03-30T15:22:41.674Z,22.68
2023-03-30T15:25:15.529Z,23.02
2023-03-30T15:28:11.720Z,21.50
2023-03-30T15:30:43.828Z,20.88
2023-03-30T15:33:29.922Z,21.37
2023-03-30T15:36:14.205Z,21.01
2023-03-30T15:38:51.720Z,20.44
2023-03-30T15:41:43.603Z,20.24
2023-03-30T15:44:16.078Z,19.77
2023-03-30T15:46:50.439Z,19.58
2023-03-30T15:49:25.284Z,19.32
2023-03-30T15:52:17.385Z,19.50
2023-03-30T15:54:51.863Z,19.66
2023-03-30T15:57:29.054Z,19.43
2023-03-30T16:00:05.586Z,19.46
2023-03-30T16:02:32.567Z,19.76
2023-03-30T16:05:07.779Z,19.39
2023-03-30T16:07:36.289Z,19.53
2023-03-30T16:10:06.648Z,19.49
2023-03-30T16:12:34.776Z,19.43
2023-03-30T16:15:04.291Z,19.21
2023-03-30T16:17:34.891Z,18.95
2023-03-30T16:20:03.254Z,19.33
2023-03-30T16:22:31.934Z,19.41
2023-03-30T16:24:58.990Z,19.12
2023-03-30T16:27:25.983Z,18.81
2023-03-30T16:29:57.693Z,18.69
2023-03-30T16:32:32.139Z,18.54
2023-03-30T16:35:02.753Z,18.24
2023-03-30T16:37:31.687Z,18.04
2023-03-30T16:39:58.823Z,18.14
2023-03-30T16:42:27.490Z,18.10
2023-03-30T16:44:54.676Z,17.91
2023-03-30T16:47:21.793Z,17.82
2023-03-30T16:49:51.790Z,17.59
2023-03-30T16:52:18.770Z,17.63
2023-03-30T16:54:45.742Z,17.73
2023-03-30T16:57:15.770Z,17.68
2023-03-30T16:59:43.153Z,17.63
2023-03-30T17:02:16.324Z,17.01
2023-03-30T17:04:49.875Z,17.00
2023-03-30T17:07:16.827Z,16.76
2023-03-30T17:09:43.766Z,16.92
2023-03-30T17:12:13.173Z,16.74
2023-03-30T17:14:42.946Z,16.53
2023-03-30T17:17:10.079Z,16.35
2023-03-30T17:19:36.988Z,16.54
2023-03-30T17:22:06.390Z,16.71
2023-03-30T17:24:33.330Z,16.57
2023-03-30T17:27:01.330Z,16.57
2023-03-30T17:29:28.174Z,16.47
2023-03-30T17:31:57.400Z,16.33
2023-03-30T17:34:24.566Z,16.14
2023-03-30T17:36:51.532Z,16.06
2023-03-30T17:39:21.091Z,16.31
2023-03-30T17:41:48.081Z,16.37
2023-03-30T17:44:17.279Z,16.37
2023-03-30T17:46:44.375Z,16.41
2023-03-30T17:49:17.258Z,16.26
2023-03-30T17:51:44.411Z,16.24
2023-03-30T17:54:11.393Z,16.34
2023-03-30T17:56:38.387Z,16.16
2023-03-30T17:59:13.085Z,15.65
2023-03-30T18:01:40.214Z,15.46
2023-03-30T18:04:09.658Z,15.46
2023-03-30T18:06:36.879Z,15.35
2023-03-30T18:09:16.496Z,15.62
2023-03-30T18:11:48.126Z,15.39
2023-03-30T18:14:15.332Z,15.58
2023-03-30T18:16:45.966Z,15.61
2023-03-30T18:19:17.536Z,15.61
2023-03-30T18:21:44.734Z,15.45
2023-03-30T18:24:15.303Z,15.17
2023-03-30T18:26:43.628Z,15.18
2023-03-30T18:29:21.991Z,14.96
2023-03-30T18:31:51.924Z,14.97
2023-03-30T18:34:23.413Z,15.13
2023-03-30T18:36:52.721Z,15.43
2023-03-30T18:39:20.178Z,15.71
2023-03-30T18:41:50.048Z,15.82
2023-03-30T18:44:21.826Z,15.67
2023-03-30T18:46:51.925Z,15.78
2023-03-30T18:49:22.542Z,15.64
2023-03-30T18:51:52.614Z,15.73
2023-03-30T18:54:19.943Z,15.75
2023-03-30T18:56:48.078Z,15.65
2023-03-30T18:59:15.311Z,15.27
2023-03-30T19:01:45.935Z,15.33
2023-03-30T19:04:15.738Z,15.45
2023-03-30T19:06:44.510Z,15.47
2023-03-30T19:09:11.850Z,15.63
2023-03-30T19:11:41.410Z,15.75
2023-03-30T19:14:12.166Z,15.72
2023-03-30T19:16:44.185Z,15.68
2023-03-30T19:19:14.895Z,15.58
2023-03-30T19:21:43.157Z,15.44
2023-03-30T19:24:14.052Z,15.31
2023-03-30T19:26:41.445Z,15.24
2023-03-30T19:29:08.335Z,14.95
2023-03-30T19:31:36.621Z,14.68
2023-03-30T19:34:03.694Z,14.77
2023-03-30T19:36:33.256Z,14.35
2023-03-30T19:39:02.614Z,14.37
2023-03-30T19:41:31.704Z,14.26
2023-03-30T19:44:02.074Z,14.47
2023-03-30T19:46:31.560Z,14.31
2023-03-30T19:49:03.240Z,14.53
2023-03-30T19:51:34.766Z,14.41
2023-03-30T19:54:01.804Z,14.74
2023-03-30T19:56:31.891Z,14.76
2023-03-30T19:59:01.556Z,14.74
2023-03-30T20:01:28.833Z,14.73
2023-03-30T20:03:56.287Z,14.64
2023-03-30T20:06:23.370Z,14.92
2023-03-30T20:08:50.594Z,14.49
2023-03-30T20:11:17.879Z,14.42
2023-03-30T20:13:49.142Z,14.29
2023-03-30T20:16:23.102Z,14.38
2023-03-30T20:18:54.572Z,14.59
2023-03-30T20:21:24.235Z,14.47
2023-03-30T20:23:51.634Z,14.57
2023-03-30T20:26:19.407Z,14.40
2023-03-30T20:28:47.339Z,14.40
2023-03-30T20:31:15.425Z,14.36
2023-03-30T20:33:42.923Z,14.33
2023-03-30T20:36:10.658Z,14.42
2023-03-30T20:38:39.631Z,14.83
2023-03-30T20:41:07.841Z,14.56
2023-03-30T20:46:16.533Z,14.31
2023-03-30T20:48:54.205Z,13.92
2023-03-30T20:51:23.585Z,13.96
2023-03-30T20:53:54.398Z,13.84
2023-03-30T20:56:22.020Z,13.66
2023-03-30T20:58:49.501Z,13.75
2023-03-30T21:01:25.561Z,13.83
2023-03-30T21:03:59.798Z,14.09
2023-03-30T21:06:31.304Z,13.95
2023-03-30T21:09:02.765Z,13.97
2023-03-30T21:11:33.594Z,13.73
2023-03-30T21:14:03.601Z,14.00
2023-03-30T21:16:30.978Z,13.75
2023-03-30T21:18:58.222Z,13.57
2023-03-30T21:21:25.295Z,13.73
2023-03-30T21:23:52.413Z,13.70
2023-03-30T21:26:21.778Z,13.56
2023-03-30T21:28:51.231Z,13.30
2023-03-30T21:31:22.905Z,13.27
2023-03-30T21:33:50.317Z,13.43
2023-03-30T21:36:17.570Z,13.51
2023-03-30T21:38:44.705Z,13.43
2023-03-30T21:41:18.347Z,13.65
2023-03-30T21:43:47.919Z,13.89
2023-03-30T21:46:19.547Z,13.72
2023-03-30T21:48:49.060Z,13.44
2023-03-30T21:51:24.540Z,13.42
2023-03-30T21:53:53.322Z,13.37
2023-03-30T21:56:23.493Z,13.33
2023-03-30T21:58:51.132Z,13.04
2023-03-30T22:01:23.719Z,12.98
2023-03-30T22:03:53.661Z,13.19
2023-03-30T22:06:24.016Z,13.26
2023-03-30T22:08:50.979Z,13.41
2023-03-30T22:11:25.169Z,13.29
2023-03-30T22:13:55.759Z,13.50
2023-03-30T22:16:32.218Z,13.46
2023-03-30T22:19:05.040Z,13.43
2023-03-30T22:21:35.692Z,13.34
2023-03-30T22:24:07.836Z,13.33
2023-03-30T22:26:38.660Z,13.16
2023-03-30T22:29:06.053Z,13.18
2023-03-30T22:31:33.706Z,13.14
2023-03-30T22:34:03.892Z,13.22
2023-03-30T22:36:31.561Z,13.41
2023-03-30T22:39:01.213Z,13.43
2023-03-30T22:41:28.558Z,13.34
2023-03-30T22:43:58.330Z,13.50
2023-03-30T22:46:28.253Z,13.37
2023-03-30T22:48:58.680Z,13.41
2023-03-30T22:51:34.244Z,13.15
2023-03-30T22:54:05.118Z,13.35
2023-03-30T22:56:32.089Z,13.46
2023-03-30T22:59:01.062Z,13.42
2023-03-30T23:01:32.535Z,13.18
2023-03-30T23:04:05.874Z,13.21
2023-03-30T23:06:36.727Z,12.98
2023-03-30T23:09:04.720Z,13.12
2023-03-30T23:11:34.945Z,12.96
2023-03-30T23:14:07.188Z,13.27
2023-03-30T23:16:39.991Z,12.98
2023-03-30T23:19:07.772Z,13.31
2023-03-30T23:21:34.810Z,13.22
2023-03-30T23:24:08.091Z,13.22
2023-03-30T23:26:35.567Z,13.28
2023-03-30T23:29:03.801Z,12.96
2023-03-30T23:31:34.561Z,13.04
2023-03-30T23:34:01.829Z,12.92
2023-03-30T23:36:28.860Z,13.07
2023-03-30T23:38:56.004Z,12.85
2023-03-30T23:41:24.302Z,13.06
2023-03-30T23:43:51.637Z,13.04
2023-03-30T23:46:19.910Z,12.87
2023-03-30T23:48:50.090Z,12.68
2023-03-30T23:51:17.188Z,12.96
2023-03-30T23:53:47.213Z,12.93
2023-03-30T23:56:17.376Z,13.03
2023-03-30T23:58:47.267Z,12.99
